createdAt,value
2022-10-28T00:01:53.445Z,9.37
2022-10-28T00:06:57.403Z,9.34
2022-10-28T00:12:02.987Z,9.47
2022-10-28T00:17:07.207Z,9.57
2022-10-28T00:22:11.210Z,9.97
2022-10-28T00:27:16.594Z,10.09
2022-10-28T00:32:20.702Z,9.82
2022-10-28T00:37:25.543Z,9.82
2022-10-28T00:42:31.197Z,9.69
2022-10-28T00:47:45.332Z,9.81
2022-10-28T00:52:53.538Z,9.60
2022-10-28T00:58:00.121Z,9.55
2022-10-28T01:03:04.596Z,9.66
2022-10-28T01:08:08.915Z,9.33
2022-10-28T01:13:22.224Z,9.31
2022-10-28T01:18:35.262Z,9.47
2022-10-28T01:23:50.078Z,9.21
2022-10-28T01:29:26.412Z,9.40
2022-10-28T01:34:38.223Z,9.25
2022-10-28T01:39:50.254Z,9.34
2022-10-28T01:45:03.073Z,9.16
2022-10-28T01:50:14.127Z,9.00
2022-10-28T01:55:22.642Z,8.99
2022-10-28T02:00:27.227Z,8.93
2022-10-28T02:05:44.630Z,9.11
2022-10-28T02:11:03.114Z,8.98
2022-10-28T02:16:15.572Z,8.91
2022-10-28T02:21:28.746Z,8.78
2022-10-28T02:26:38.835Z,8.95
2022-10-28T02:31:49.037Z,8.89
2022-10-28T02:36:56.722Z,8.69
2022-10-28T02:42:05.451Z,8.55
2022-10-28T02:47:15.634Z,8.54
2022-10-28T02:52:24.098Z,8.49
2022-10-28T02:57:31.108Z,8.45
2022-10-28T03:02:36.026Z,8.87
2022-10-28T03:07:41.556Z,9.00
2022-10-28T03:12:45.826Z,8.84
2022-10-28T03:17:50.169Z,8.78
2022-10-28T03:22:55.722Z,8.85
2022-10-28T03:28:00.112Z,8.64
2022-10-28T03:33:04.297Z,8.44
2022-10-28T03:38:09.910Z,8.78
2022-10-28T03:43:14.217Z,8.87
2022-10-28T03:48:18.323Z,8.55
2022-10-28T03:53:27.555Z,8.39
2022-10-28T03:58:37.281Z,8.27
2022-10-28T04:50:47.158Z,8.17
2022-10-28T04:55:51.385Z,8.06
2022-10-28T05:00:56.919Z,7.65
2022-10-28T05:06:02.412Z,7.63
2022-10-28T05:11:06.808Z,7.86
2022-10-28T05:16:12.179Z,7.80
2022-10-28T05:21:17.994Z,7.57
2022-10-28T05:26:22.149Z,7.68
2022-10-28T05:31:26.223Z,8.25
2022-10-28T05:36:31.552Z,8.31
2022-10-28T05:41:38.768Z,8.44
2022-10-28T05:46:42.987Z,8.88
2022-10-28T05:51:48.670Z,9.30
2022-10-28T05:56:52.704Z,9.46
2022-10-28T06:01:56.825Z,10.00
2022-10-28T06:07:02.319Z,11.38
2022-10-28T06:12:07.197Z,11.22
2022-10-28T06:17:11.284Z,11.71
2022-10-28T06:22:16.795Z,12.43
2022-10-28T06:27:20.826Z,13.51
2022-10-28T06:32:24.812Z,14.64
2022-10-28T06:37:32.277Z,15.21
2022-10-28T06:42:36.388Z,15.59
2022-10-28T06:47:42.107Z,16.06
2022-10-28T06:52:47.803Z,16.60
2022-10-28T06:57:53.367Z,17.14
2022-10-28T07:02:58.107Z,17.98
2022-10-28T07:08:03.655Z,18.44
2022-10-28T07:13:08.235Z,18.36
2022-10-28T07:18:12.317Z,19.28
2022-10-28T07:23:17.945Z,19.34
2022-10-28T07:28:23.133Z,19.44
2022-10-28T07:33:27.246Z,19.79
2022-10-28T07:38:33.001Z,19.95
2022-10-28T07:43:38.554Z,20.15
2022-10-28T07:48:42.703Z,20.29
2022-10-28T07:53:48.280Z,20.66
2022-10-28T07:58:52.480Z,20.73
2022-10-28T08:03:56.476Z,21.05
2022-10-28T08:09:01.849Z,21.53
2022-10-28T08:14:05.911Z,21.80
2022-10-28T08:19:09.822Z,22.37
2022-10-28T08:24:15.526Z,22.85
2022-10-28T08:29:19.576Z,22.82
2022-10-28T08:34:23.665Z,22.60
2022-10-28T08:39:29.084Z,22.83
2022-10-28T08:44:56.429Z,22.87
2022-10-28T08:50:06.452Z,23.61
2022-10-28T08:55:16.806Z,23.35
2022-10-28T09:00:26.109Z,23.07
2022-10-28T09:05:30.167Z,23.29
2022-10-28T09:10:54.478Z,23.35
2022-10-28T09:16:05.815Z,23.13
2022-10-28T09:21:20.787Z,23.97
2022-10-28T09:26:37.915Z,23.77
2022-10-28T09:31:47.483Z,24.13
2022-10-28T09:36:57.131Z,24.63
2022-10-28T09:42:05.102Z,26.77
2022-10-28T09:47:16.645Z,26.54
2022-10-28T09:52:26.457Z,26.64
2022-10-28T09:57:33.047Z,26.60
2022-10-28T10:02:40.508Z,25.89
2022-10-28T10:07:49.745Z,25.81
2022-10-28T10:12:58.997Z,24.90
2022-10-28T10:18:06.162Z,25.00
2022-10-28T10:23:24.104Z,25.33
2022-10-28T10:28:30.664Z,25.66
2022-10-28T10:33:40.428Z,25.67
2022-10-28T10:38:50.144Z,26.00
2022-10-28T10:43:55.524Z,25.12
2022-10-28T10:49:14.359Z,25.52
2022-10-28T10:54:19.354Z,25.67
2022-10-28T10:59:28.967Z,25.74
2022-10-28T11:04:37.017Z,25.01
2022-10-28T11:09:42.428Z,25.32
2022-10-28T11:14:58.639Z,25.09
2022-10-28T11:20:25.059Z,24.56
2022-10-28T11:25:37.244Z,25.34
2022-10-28T11:30:55.300Z,25.27
2022-10-28T11:36:09.007Z,25.79
2022-10-28T11:41:24.384Z,24.13
2022-10-28T11:46:44.275Z,24.54
2022-10-28T11:51:56.729Z,25.00
2022-10-28T11:57:09.642Z,24.54
2022-10-28T12:02:37.237Z,24.68
2022-10-28T12:07:55.126Z,25.66
2022-10-28T12:13:13.434Z,25.73
2022-10-28T12:18:24.700Z,25.74
2022-10-28T12:23:33.100Z,25.27
2022-10-28T12:28:43.261Z,25.24
2022-10-28T12:33:53.979Z,24.55
2022-10-28T12:39:05.544Z,24.15
2022-10-28T12:44:14.786Z,24.40
2022-10-28T12:49:26.712Z,24.39
2022-10-28T12:54:38.845Z,23.97
2022-10-28T12:59:46.845Z,24.00
2022-10-28T13:04:52.583Z,24.41
2022-10-28T13:10:06.924Z,24.31
2022-10-28T13:15:39.432Z,23.35
2022-10-28T13:20:49.811Z,23.88
2022-10-28T13:26:04.276Z,23.42
2022-10-28T13:31:10.365Z,23.07
2022-10-28T13:36:22.853Z,22.76
2022-10-28T13:41:35.674Z,22.78
2022-10-28T13:47:05.468Z,22.38
2022-10-28T13:52:22.737Z,22.22
2022-10-28T13:57:30.142Z,22.49
2022-10-28T14:02:39.407Z,22.59
2022-10-28T14:07:57.282Z,22.00
2022-10-28T14:13:04.694Z,21.72
2022-10-28T14:24:12.060Z,21.59
2022-10-28T14:29:25.259Z,21.73
2022-10-28T14:34:40.777Z,22.22
2022-10-28T14:40:04.369Z,22.91
2022-10-28T14:45:27.854Z,22.71
2022-10-28T14:50:40.764Z,23.20
2022-10-28T14:55:51.271Z,23.05
2022-10-28T15:01:09.896Z,23.31
2022-10-28T15:06:28.771Z,22.00
2022-10-28T15:11:36.298Z,21.09
2022-10-28T15:16:48.126Z,20.15
2022-10-28T15:22:03.531Z,19.55
2022-10-28T15:27:13.883Z,19.40
2022-10-28T15:32:33.908Z,19.03
2022-10-28T15:37:38.017Z,18.21
2022-10-28T15:42:50.892Z,17.65
2022-10-28T15:47:56.882Z,17.26
2022-10-28T15:53:37.953Z,16.50
2022-10-28T15:58:44.440Z,16.34
2022-10-28T16:03:48.923Z,16.13
2022-10-28T16:09:06.514Z,16.07
2022-10-28T16:14:29.847Z,15.91
2022-10-28T16:19:39.425Z,16.23
2022-10-28T16:24:43.762Z,15.84
2022-10-28T16:29:49.980Z,15.87
2022-10-28T16:34:54.069Z,15.11
2022-10-28T16:39:58.297Z,15.14
2022-10-28T16:45:03.682Z,15.36
2022-10-28T16:50:08.449Z,15.44
2022-10-28T16:55:19.559Z,15.25
2022-10-28T17:00:25.377Z,15.08
2022-10-28T17:05:29.614Z,14.24
2022-10-28T17:10:33.583Z,13.87
2022-10-28T17:15:39.253Z,13.77
2022-10-28T17:20:43.344Z,13.67
2022-10-28T17:25:57.238Z,13.54
2022-10-28T17:31:09.015Z,13.50
2022-10-28T17:36:13.122Z,13.38
2022-10-28T17:41:18.371Z,13.80
2022-10-28T17:46:24.294Z,13.55
2022-10-28T17:51:31.217Z,13.27
2022-10-28T17:56:35.722Z,13.17
2022-10-28T18:01:41.304Z,13.09
2022-10-28T18:06:45.385Z,12.60
2022-10-28T18:11:49.541Z,12.57
2022-10-28T18:16:55.053Z,12.26
2022-10-28T18:21:59.571Z,12.16
2022-10-28T18:27:03.813Z,12.03
2022-10-28T18:32:09.415Z,12.03
2022-10-28T18:37:14.801Z,12.05
2022-10-28T18:42:21.948Z,12.34
2022-10-28T18:47:28.077Z,12.07
2022-10-28T18:52:31.997Z,11.82
2022-10-28T18:57:36.156Z,11.73
2022-10-28T19:02:47.382Z,11.84
2022-10-28T19:07:52.112Z,11.81
2022-10-28T19:12:57.307Z,11.53
2022-10-28T19:18:03.160Z,11.51
2022-10-28T19:23:07.795Z,11.63
2022-10-28T19:28:12.581Z,11.44
2022-10-28T19:33:18.281Z,10.99
2022-10-28T19:38:22.767Z,10.75
2022-10-28T19:43:26.827Z,10.86
2022-10-28T19:48:33.052Z,10.66
2022-10-28T19:53:37.451Z,10.73
2022-10-28T19:58:41.819Z,10.82
2022-10-28T20:03:49.348Z,11.16
2022-10-28T20:08:53.756Z,11.30
2022-10-28T20:14:00.948Z,11.25
2022-10-28T20:19:06.846Z,10.97
2022-10-28T20:24:10.807Z,10.48
2022-10-28T20:29:14.697Z,10.32
2022-10-28T20:34:20.141Z,10.16
2022-10-28T20:39:24.137Z,10.47
2022-10-28T20:44:28.676Z,10.43
2022-10-28T20:49:34.625Z,10.43
2022-10-28T20:54:39.063Z,10.56
2022-10-28T20:59:43.020Z,10.50
2022-10-28T21:04:49.126Z,10.18
2022-10-28T21:09:53.306Z,10.11
2022-10-28T21:14:57.315Z,10.11
2022-10-28T21:20:02.642Z,10.08
2022-10-28T21:25:07.702Z,9.92
2022-10-28T21:30:13.308Z,9.73
2022-10-28T21:35:19.261Z,9.78
2022-10-28T21:40:23.539Z,9.65
2022-10-28T21:45:27.483Z,9.91
2022-10-28T21:50:33.061Z,9.98
2022-10-28T21:55:46.796Z,9.71
2022-10-28T22:00:51.682Z,9.30
2022-10-28T22:05:57.339Z,9.26
2022-10-28T22:11:02.903Z,9.08
2022-10-28T22:16:08.988Z,8.79
2022-10-28T22:21:16.597Z,8.76
2022-10-28T22:26:22.826Z,9.12
2022-10-28T22:31:29.141Z,8.68
2022-10-28T22:36:34.497Z,8.55
2022-10-28T22:41:38.376Z,8.34
2022-10-28T22:46:43.330Z,8.95
2022-10-28T22:51:48.636Z,8.83
2022-10-28T22:56:52.685Z,8.96
2022-10-28T23:01:56.991Z,8.81
2022-10-28T23:07:02.523Z,8.80
2022-10-28T23:12:07.132Z,9.02
2022-10-28T23:17:11.126Z,8.70
2022-10-28T23:22:16.506Z,8.85
2022-10-28T23:27:20.808Z,8.91
2022-10-28T23:32:25.958Z,8.63
2022-10-28T23:37:31.345Z,8.87
2022-10-28T23:42:35.256Z,8.95
2022-10-28T23:47:39.182Z,8.83
2022-10-28T23:52:44.530Z,8.87
2022-10-28T23:57:48.470Z,8.85
